createdAt,value
2022-12-07T00:03:49.693Z,2.82
2022-12-07T00:08:52.887Z,2.80
2022-12-07T00:14:00.519Z,2.78
2022-12-07T00:19:05.077Z,2.70
2022-12-07T00:24:08.755Z,2.86
2022-12-07T00:29:23.135Z,2.90
2022-12-07T00:34:26.437Z,2.90
2022-12-07T00:39:29.645Z,2.80
2022-12-07T00:44:32.951Z,2.70
2022-12-07T00:49:36.062Z,2.70
2022-12-07T00:54:39.281Z,2.60
2022-12-07T00:59:42.481Z,2.60
2022-12-07T01:04:45.631Z,2.76
2022-12-07T01:09:48.690Z,2.86
2022-12-07T01:14:51.831Z,2.90
2022-12-07T01:19:54.914Z,2.80
2022-12-07T01:24:58.037Z,2.70
2022-12-07T01:30:02.714Z,2.60
2022-12-07T01:35:07.236Z,2.56
2022-12-07T01:40:12.317Z,2.50
2022-12-07T01:45:41.841Z,2.60
2022-12-07T01:50:49.936Z,2.70
2022-12-07T01:55:55.614Z,2.70
2022-12-07T02:00:59.008Z,2.60
2022-12-07T02:06:02.310Z,2.56
2022-12-07T02:11:08.543Z,2.50
2022-12-07T02:16:21.053Z,2.40
2022-12-07T02:22:12.435Z,2.40
2022-12-07T02:27:54.166Z,2.50
2022-12-07T02:33:24.995Z,2.60
2022-12-07T02:38:37.034Z,2.60
2022-12-07T02:43:47.235Z,2.50
2022-12-07T02:48:53.147Z,2.40
2022-12-07T02:53:56.259Z,2.40
2022-12-07T02:59:31.830Z,2.38
2022-12-07T03:05:15.505Z,2.30
2022-12-07T03:10:47.671Z,2.30
2022-12-07T03:16:16.980Z,2.40
2022-12-07T03:21:26.445Z,2.40
2022-12-07T03:26:39.869Z,2.44
2022-12-07T03:31:52.424Z,2.38
2022-12-07T03:37:27.380Z,2.30
2022-12-07T03:42:33.635Z,2.20
2022-12-07T03:48:07.621Z,2.16
2022-12-07T03:53:20.831Z,2.20
2022-12-07T03:58:25.484Z,2.30
2022-12-07T04:03:28.608Z,2.30
2022-12-07T04:08:31.792Z,2.32
2022-12-07T04:13:54.868Z,2.26
2022-12-07T04:18:58.205Z,2.20
2022-12-07T04:24:01.388Z,2.10
2022-12-07T04:29:07.600Z,2.10
2022-12-07T04:34:12.772Z,2.20
2022-12-07T04:39:28.322Z,2.22
2022-12-07T04:44:32.591Z,2.30
2022-12-07T04:49:36.154Z,2.28
2022-12-07T04:54:39.577Z,2.18
2022-12-07T04:59:45.783Z,2.10
2022-12-07T05:04:49.381Z,2.00
2022-12-07T05:09:52.619Z,2.02
2022-12-07T05:14:55.689Z,2.10
2022-12-07T05:19:59.083Z,2.10
2022-12-07T05:25:02.519Z,2.20
2022-12-07T05:30:09.806Z,2.10
2022-12-07T05:35:12.954Z,2.10
2022-12-07T05:40:17.411Z,2.00
2022-12-07T05:45:20.468Z,1.94
2022-12-07T05:50:23.576Z,2.00
2022-12-07T05:55:26.683Z,2.10
2022-12-07T06:00:29.797Z,2.10
2022-12-07T06:05:32.899Z,2.10
2022-12-07T06:10:36.105Z,2.00
2022-12-07T06:15:39.656Z,1.90
2022-12-07T06:20:42.727Z,1.96
2022-12-07T06:25:47.681Z,2.00
2022-12-07T06:31:03.837Z,2.00
2022-12-07T06:36:08.057Z,1.92
2022-12-07T06:41:11.226Z,1.88
2022-12-07T06:46:16.365Z,1.80
2022-12-07T06:51:20.304Z,1.94
2022-12-07T06:56:24.044Z,2.02
2022-12-07T07:01:27.262Z,2.04
2022-12-07T07:06:30.753Z,2.00
2022-12-07T07:11:33.897Z,1.90
2022-12-07T07:16:37.124Z,1.90
2022-12-07T07:21:40.378Z,2.00
2022-12-07T07:26:43.489Z,2.10
2022-12-07T07:31:46.809Z,2.10
2022-12-07T07:36:50.109Z,2.20
2022-12-07T07:41:53.213Z,2.10
2022-12-07T07:46:56.326Z,2.10
2022-12-07T07:52:00.043Z,2.10
2022-12-07T07:57:03.149Z,2.18
2022-12-07T08:02:06.760Z,2.20
2022-12-07T08:07:10.490Z,2.20
2022-12-07T08:12:13.733Z,2.12
2022-12-07T08:17:17.744Z,2.10
2022-12-07T08:22:20.826Z,2.10
2022-12-07T08:27:28.053Z,2.30
2022-12-07T08:32:31.243Z,2.30
2022-12-07T08:37:34.649Z,2.30
2022-12-07T08:42:41.501Z,2.30
2022-12-07T08:48:07.183Z,2.40
2022-12-07T08:53:10.394Z,2.50
2022-12-07T08:58:13.901Z,2.40
2022-12-07T09:03:17.449Z,2.40
2022-12-07T09:08:23.142Z,2.60
2022-12-07T09:13:26.315Z,2.70
2022-12-07T09:18:29.604Z,2.80
2022-12-07T09:23:33.038Z,2.72
2022-12-07T09:28:36.227Z,2.70
2022-12-07T09:33:39.329Z,2.76
2022-12-07T09:38:42.542Z,2.90
2022-12-07T09:43:47.258Z,3.00
2022-12-07T09:48:52.230Z,3.00
2022-12-07T09:53:59.403Z,2.90
2022-12-07T09:59:04.734Z,3.00
2022-12-07T10:04:15.245Z,3.00
2022-12-07T10:09:22.410Z,2.90
2022-12-07T10:14:58.797Z,3.00
2022-12-07T10:19:53.367Z,3.00
2022-12-07T10:24:56.608Z,2.90
2022-12-07T10:30:01.183Z,3.00
2022-12-07T10:35:26.363Z,3.00
2022-12-07T10:40:32.005Z,3.00
2022-12-07T10:46:03.581Z,3.00
2022-12-07T10:51:40.068Z,3.00
2022-12-07T10:57:19.118Z,3.00
2022-12-07T11:02:54.481Z,3.00
2022-12-07T11:08:04.401Z,3.00
2022-12-07T11:13:30.084Z,3.10
2022-12-07T11:19:22.785Z,3.00
2022-12-07T11:24:57.073Z,3.20
2022-12-07T11:30:46.894Z,3.10
2022-12-07T11:36:30.416Z,3.10
2022-12-07T11:41:41.216Z,3.10
2022-12-07T11:47:03.353Z,2.90
2022-12-07T11:52:22.381Z,2.90
2022-12-07T11:57:39.219Z,3.00
2022-12-07T12:03:12.677Z,2.90
2022-12-07T12:14:56.545Z,2.84
2022-12-07T12:20:23.476Z,2.80
2022-12-07T12:25:44.976Z,2.82
2022-12-07T12:31:08.300Z,2.80
2022-12-07T12:36:44.163Z,2.70
2022-12-07T12:41:50.288Z,2.78
2022-12-07T12:47:03.483Z,2.64
2022-12-07T12:52:15.617Z,2.70
2022-12-07T12:57:29.165Z,2.80
2022-12-07T13:02:38.371Z,2.80
2022-12-07T13:07:56.183Z,2.80
2022-12-07T13:13:01.106Z,2.90
2022-12-07T13:18:24.492Z,2.80
2022-12-07T13:23:53.004Z,2.70
2022-12-07T13:29:11.557Z,2.60
2022-12-07T13:34:39.435Z,2.70
2022-12-07T13:39:48.149Z,2.70
2022-12-07T13:44:51.387Z,2.66
2022-12-07T13:49:58.080Z,2.60
2022-12-07T13:55:15.838Z,2.50
2022-12-07T14:00:29.513Z,2.60
2022-12-07T14:05:35.688Z,2.70
2022-12-07T14:10:43.704Z,2.70
2022-12-07T14:15:52.883Z,2.60
2022-12-07T14:21:31.017Z,2.50
2022-12-07T14:26:34.168Z,2.50
2022-12-07T14:31:37.520Z,2.60
2022-12-07T14:36:40.907Z,2.60
2022-12-07T14:41:53.317Z,2.60
2022-12-07T14:57:52.709Z,2.40
2022-12-07T15:02:57.527Z,2.50
2022-12-07T15:08:00.814Z,2.50
2022-12-07T15:13:23.333Z,2.40
2022-12-07T15:18:26.538Z,2.30
2022-12-07T15:23:29.749Z,2.30
2022-12-07T15:28:32.955Z,2.40
2022-12-07T15:33:36.602Z,2.40
2022-12-07T15:39:12.724Z,2.40
2022-12-07T15:44:24.158Z,2.30
2022-12-07T15:49:30.946Z,2.28
2022-12-07T15:54:34.156Z,2.32
2022-12-07T15:59:37.257Z,2.36
2022-12-07T16:04:40.883Z,2.30
2022-12-07T16:09:45.521Z,2.28
2022-12-07T16:14:48.728Z,2.20
2022-12-07T16:19:52.039Z,2.30
2022-12-07T16:24:55.289Z,2.30
2022-12-07T16:29:58.562Z,2.30
2022-12-07T16:35:02.264Z,2.20
2022-12-07T16:40:07.476Z,2.20
2022-12-07T16:45:16.373Z,2.30
2022-12-07T16:50:22.691Z,2.30
2022-12-07T16:55:25.968Z,2.24
2022-12-07T17:00:29.242Z,2.16
2022-12-07T17:05:32.894Z,2.10
2022-12-07T17:10:40.533Z,2.18
2022-12-07T17:15:46.984Z,2.20
2022-12-07T17:20:51.840Z,2.20
2022-12-07T17:25:54.964Z,2.14
2022-12-07T17:30:58.329Z,2.10
2022-12-07T17:36:10.191Z,2.10
2022-12-07T17:41:44.618Z,2.20
2022-12-07T17:46:58.075Z,2.20
2022-12-07T17:52:20.006Z,2.10
2022-12-07T17:57:24.034Z,2.08
2022-12-07T18:02:27.470Z,2.18
2022-12-07T18:07:30.966Z,2.20
2022-12-07T18:12:34.087Z,2.22
2022-12-07T18:17:37.219Z,2.10
2022-12-07T18:22:40.499Z,2.10
2022-12-07T18:27:43.696Z,2.10
2022-12-07T18:32:47.036Z,2.06
2022-12-07T18:37:50.221Z,2.10
2022-12-07T18:42:53.428Z,2.14
2022-12-07T18:47:56.535Z,2.10
2022-12-07T18:53:04.987Z,2.02
2022-12-07T18:58:08.175Z,2.12
2022-12-07T19:03:11.297Z,2.10
2022-12-07T19:08:14.718Z,2.00
2022-12-07T19:13:18.432Z,2.10
2022-12-07T19:18:21.513Z,2.16
2022-12-07T19:23:25.558Z,2.10
2022-12-07T19:28:28.871Z,2.10
2022-12-07T19:33:32.078Z,2.10
2022-12-07T19:38:35.388Z,2.00
2022-12-07T19:43:38.585Z,2.00
2022-12-07T19:48:41.793Z,2.10
2022-12-07T19:53:45.510Z,2.00
2022-12-07T19:58:49.338Z,2.00
2022-12-07T20:03:52.459Z,2.10
2022-12-07T20:08:56.580Z,2.02
2022-12-07T20:13:59.692Z,1.94
2022-12-07T20:19:03.808Z,2.00
2022-12-07T20:24:11.287Z,1.92
2022-12-07T20:29:18.426Z,1.90
2022-12-07T20:34:22.650Z,1.94
2022-12-07T20:39:25.860Z,1.90
2022-12-07T20:44:29.274Z,1.88
2022-12-07T20:49:33.118Z,1.92
2022-12-07T20:54:37.017Z,1.90
2022-12-07T20:59:41.913Z,1.80
2022-12-07T21:04:45.416Z,1.90
2022-12-07T21:09:48.899Z,1.90
2022-12-07T21:14:52.131Z,1.80
2022-12-07T21:19:55.425Z,1.88
2022-12-07T21:24:58.544Z,1.90
2022-12-07T21:30:01.732Z,1.80
2022-12-07T21:35:06.290Z,1.80
2022-12-07T21:40:16.514Z,1.90
2022-12-07T21:45:20.085Z,1.84
2022-12-07T21:50:23.372Z,1.80
2022-12-07T21:55:26.600Z,1.90
2022-12-07T22:00:29.896Z,1.80
2022-12-07T22:05:33.003Z,1.76
2022-12-07T22:10:36.207Z,1.80
2022-12-07T22:15:41.842Z,1.74
2022-12-07T22:20:45.184Z,1.70
2022-12-07T22:25:48.291Z,1.70
2022-12-07T22:30:51.511Z,1.64
2022-12-07T22:35:54.605Z,1.64
2022-12-07T22:40:58.427Z,1.62
2022-12-07T22:46:02.706Z,1.52
2022-12-07T22:51:06.175Z,1.60
2022-12-07T22:56:09.491Z,1.60
2022-12-07T23:01:15.910Z,1.50
2022-12-07T23:06:27.280Z,1.50
2022-12-07T23:11:53.047Z,1.60
2022-12-07T23:16:56.638Z,1.50
2022-12-07T23:22:00.220Z,1.50
2022-12-07T23:27:03.363Z,1.50
2022-12-07T23:32:06.538Z,1.40
2022-12-07T23:37:09.915Z,1.40
2022-12-07T23:42:13.182Z,1.50
2022-12-07T23:47:16.431Z,1.48
2022-12-07T23:52:19.599Z,1.40
2022-12-07T23:57:22.908Z,1.40
